createdAt,value
2023-01-23T00:00:35.858Z,81.65
2023-01-23T00:05:41.247Z,81.56
2023-01-23T00:10:46.776Z,81.47
2023-01-23T00:15:52.537Z,81.75
2023-01-23T00:20:58.914Z,81.58
2023-01-23T00:26:07.082Z,81.58
2023-01-23T00:31:15.976Z,81.46
2023-01-23T00:36:21.781Z,81.15
2023-01-23T00:41:28.270Z,81.31
2023-01-23T00:46:35.171Z,81.48
2023-01-23T00:51:40.713Z,81.39
2023-01-23T00:56:46.156Z,81.23
2023-01-23T01:01:53.087Z,81.03
2023-01-23T01:06:59.630Z,80.88
2023-01-23T01:12:05.342Z,81.06
2023-01-23T01:17:10.884Z,81.46
2023-01-23T01:22:16.617Z,81.56
2023-01-23T01:27:22.797Z,81.42
2023-01-23T01:32:28.758Z,81.06
2023-01-23T01:37:36.746Z,80.98
2023-01-23T01:42:45.023Z,81.15
2023-01-23T01:47:50.416Z,81.11
2023-01-23T01:52:56.219Z,81.11
2023-01-23T01:58:02.853Z,81.18
2023-01-23T02:03:09.055Z,81.21
2023-01-23T02:08:30.194Z,81.14
2023-01-23T02:13:39.944Z,80.90
2023-01-23T02:18:51.453Z,81.07
2023-01-23T02:24:04.865Z,81.11
2023-01-23T02:29:11.351Z,81.08
2023-01-23T02:34:22.936Z,80.97
2023-01-23T02:39:28.542Z,80.93
2023-01-23T02:44:34.556Z,80.92
2023-01-23T02:49:42.912Z,80.87
2023-01-23T02:54:48.702Z,80.60
2023-01-23T03:00:12.180Z,80.37
2023-01-23T03:05:19.441Z,80.67
2023-01-23T03:10:24.998Z,80.46
2023-01-23T03:15:31.649Z,80.15
2023-01-23T03:20:42.337Z,80.21
2023-01-23T03:25:49.143Z,80.18
2023-01-23T03:30:54.689Z,80.38
2023-01-23T03:36:01.245Z,80.35
2023-01-23T03:41:25.486Z,80.26
2023-01-23T03:46:32.839Z,80.04
2023-01-23T03:51:38.739Z,80.07
2023-01-23T03:56:44.477Z,79.92
2023-01-23T04:02:12.737Z,79.98
2023-01-23T04:07:18.375Z,79.98
2023-01-23T04:12:25.588Z,79.73
2023-01-23T04:17:32.544Z,79.73
2023-01-23T04:22:38.244Z,79.56
2023-01-23T04:27:43.878Z,79.70
2023-01-23T04:32:50.100Z,79.36
2023-01-23T04:37:56.762Z,79.12
2023-01-23T04:43:03.450Z,79.26
2023-01-23T04:48:11.319Z,79.47
2023-01-23T04:53:17.263Z,79.62
2023-01-23T04:58:23.808Z,79.46
2023-01-23T05:03:29.538Z,79.53
2023-01-23T05:08:35.301Z,79.48
2023-01-23T05:13:42.642Z,79.35
2023-01-23T05:18:48.515Z,79.42
2023-01-23T05:23:54.737Z,79.36
2023-01-23T05:29:00.563Z,79.35
2023-01-23T05:34:06.955Z,79.40
2023-01-23T05:39:14.174Z,79.28
2023-01-23T05:44:21.026Z,79.61
2023-01-23T05:49:28.256Z,79.34
2023-01-23T05:54:34.423Z,79.06
2023-01-23T05:59:40.544Z,78.99
2023-01-23T06:04:55.916Z,79.28
2023-01-23T06:10:03.173Z,79.38
2023-01-23T06:15:10.997Z,79.16
2023-01-23T06:20:16.810Z,79.23
2023-01-23T06:25:23.395Z,79.44
2023-01-23T06:30:30.470Z,79.17
2023-01-23T06:35:36.122Z,79.20
2023-01-23T06:40:45.131Z,78.91
2023-01-23T06:45:52.342Z,78.93
2023-01-23T06:51:01.283Z,78.95
2023-01-23T06:56:09.095Z,78.94
2023-01-23T07:01:17.854Z,79.08
2023-01-23T07:06:32.003Z,78.80
2023-01-23T07:11:37.739Z,78.78
2023-01-23T07:16:43.879Z,78.78
2023-01-23T07:21:50.745Z,78.64
2023-01-23T07:26:56.144Z,78.67
2023-01-23T07:32:01.637Z,78.67
2023-01-23T07:37:07.169Z,78.60
2023-01-23T07:42:13.009Z,78.26
2023-01-23T07:47:19.730Z,78.79
2023-01-23T07:52:25.416Z,78.46
2023-01-23T07:57:31.061Z,78.46
2023-01-23T08:02:37.925Z,78.08
2023-01-23T08:07:44.303Z,78.34
2023-01-23T08:12:49.755Z,78.07
2023-01-23T08:17:55.685Z,78.35
2023-01-23T08:23:02.585Z,78.70
2023-01-23T08:28:08.112Z,78.81
2023-01-23T08:33:13.715Z,78.25
2023-01-23T08:38:19.904Z,77.94
2023-01-23T08:43:25.361Z,77.67
2023-01-23T08:48:31.414Z,77.62
2023-01-23T08:53:37.851Z,77.81
2023-01-23T08:58:43.552Z,77.92
2023-01-23T09:03:49.395Z,77.80
2023-01-23T09:08:54.934Z,77.49
2023-01-23T09:14:00.319Z,77.26
2023-01-23T09:19:05.694Z,76.90
2023-01-23T09:24:11.288Z,76.67
2023-01-23T09:29:17.125Z,76.97
2023-01-23T09:34:22.597Z,76.67
2023-01-23T09:39:28.203Z,76.50
2023-01-23T09:44:53.273Z,76.09
2023-01-23T09:50:02.171Z,75.87
2023-01-23T09:55:16.484Z,75.64
2023-01-23T10:00:33.087Z,75.76
2023-01-23T10:05:58.271Z,75.78
2023-01-23T10:11:30.391Z,75.29
2023-01-23T10:16:50.416Z,75.12
2023-01-23T10:22:00.455Z,75.56
2023-01-23T10:27:14.461Z,75.38
2023-01-23T10:38:04.582Z,73.95
2023-01-23T10:43:15.373Z,73.95
2023-01-23T10:48:39.593Z,74.19
2023-01-23T10:53:45.318Z,74.31
2023-01-23T10:58:51.442Z,73.66
2023-01-23T11:03:57.607Z,73.66
2023-01-23T11:09:04.838Z,73.50
2023-01-23T11:14:17.978Z,73.08
2023-01-23T11:19:24.540Z,73.00
2023-01-23T11:24:40.867Z,72.34
2023-01-23T11:29:58.652Z,72.34
2023-01-23T11:35:16.036Z,71.97
2023-01-23T11:40:22.011Z,72.16
2023-01-23T11:45:33.049Z,71.86
2023-01-23T11:50:54.950Z,71.86
2023-01-23T11:55:57.289Z,71.80
2023-01-23T12:01:25.333Z,71.08
2023-01-23T12:06:42.617Z,70.97
2023-01-23T12:12:06.032Z,70.86
2023-01-23T12:17:29.685Z,70.86
2023-01-23T12:22:38.158Z,70.69
2023-01-23T12:27:46.179Z,71.01
2023-01-23T12:33:14.659Z,70.49
2023-01-23T12:38:35.179Z,70.55
2023-01-23T12:43:43.621Z,70.43
2023-01-23T12:49:01.189Z,69.99
2023-01-23T12:54:09.622Z,69.85
2023-01-23T12:59:20.833Z,70.21
2023-01-23T13:04:44.878Z,70.39
2023-01-23T13:09:57.404Z,70.06
2023-01-23T13:15:30.832Z,69.94
2023-01-23T13:20:55.297Z,69.98
2023-01-23T13:26:22.189Z,69.90
2023-01-23T13:31:47.293Z,69.21
2023-01-23T13:36:54.099Z,68.87
2023-01-23T13:42:18.665Z,68.94
2023-01-23T13:47:45.145Z,68.95
2023-01-23T13:53:14.218Z,68.94
2023-01-23T13:58:22.594Z,68.96
2023-01-23T14:03:48.799Z,68.61
2023-01-23T14:08:55.960Z,68.37
2023-01-23T14:14:21.590Z,68.30
2023-01-23T14:19:31.495Z,68.35
2023-01-23T14:24:46.113Z,68.17
2023-01-23T14:30:02.999Z,68.14
2023-01-23T14:35:21.117Z,67.90
2023-01-23T14:40:33.232Z,67.63
2023-01-23T14:45:35.551Z,67.45
2023-01-23T14:50:41.209Z,67.81
2023-01-23T14:55:50.752Z,67.71
2023-01-23T15:00:56.980Z,67.46
2023-01-23T15:06:05.614Z,67.89
2023-01-23T15:11:13.359Z,67.60
2023-01-23T15:16:29.121Z,67.82
2023-01-23T15:21:40.864Z,66.63
2023-01-23T15:26:51.732Z,64.13
2023-01-23T15:32:00.687Z,65.94
2023-01-23T15:37:21.347Z,66.38
2023-01-23T15:42:35.280Z,66.55
2023-01-23T15:47:40.830Z,66.18
2023-01-23T15:52:49.240Z,66.79
2023-01-23T15:57:55.966Z,66.38
2023-01-23T16:03:01.767Z,66.27
2023-01-23T16:08:09.503Z,66.50
2023-01-23T16:13:15.619Z,66.27
2023-01-23T16:18:21.275Z,66.34
2023-01-23T16:23:31.227Z,66.45
2023-01-23T16:28:34.210Z,66.47
2023-01-23T16:33:39.677Z,65.79
2023-01-23T16:38:51.790Z,65.64
2023-01-23T16:43:57.401Z,65.86
2023-01-23T16:49:02.876Z,65.64
2023-01-23T16:54:18.250Z,65.85
2023-01-23T16:59:20.548Z,65.62
2023-01-23T17:04:26.000Z,65.62
2023-01-23T17:09:31.467Z,65.19
2023-01-23T17:14:38.194Z,65.20
2023-01-23T17:19:45.259Z,65.46
2023-01-23T17:24:50.878Z,65.01
2023-01-23T17:29:56.407Z,65.18
2023-01-23T17:35:04.234Z,65.15
2023-01-23T17:40:12.904Z,64.80
2023-01-23T17:45:21.044Z,65.00
2023-01-23T17:50:27.914Z,64.50
2023-01-23T17:55:33.500Z,64.89
2023-01-23T18:00:40.632Z,64.83
2023-01-23T18:05:46.187Z,64.76
2023-01-23T18:10:54.066Z,64.58
2023-01-23T18:16:26.840Z,64.58
2023-01-23T18:21:32.736Z,64.41
2023-01-23T18:26:59.969Z,64.33
2023-01-23T18:32:24.817Z,64.36
2023-01-23T18:37:48.632Z,64.08
2023-01-23T18:43:03.028Z,63.94
2023-01-23T18:48:24.729Z,63.47
2023-01-23T18:53:28.273Z,63.70
2023-01-23T18:58:50.291Z,63.32
2023-01-23T19:03:57.453Z,63.42
2023-01-23T19:09:03.589Z,63.66
2023-01-23T19:14:17.683Z,63.60
2023-01-23T19:19:28.923Z,63.72
2023-01-23T19:24:34.624Z,63.38
2023-01-23T19:29:41.330Z,63.15
2023-01-23T19:34:46.786Z,63.15
2023-01-23T19:39:52.166Z,63.55
2023-01-23T19:44:57.562Z,63.71
2023-01-23T19:50:03.028Z,62.97
2023-01-23T19:55:08.800Z,63.48
2023-01-23T20:00:18.619Z,63.44
2023-01-23T20:05:24.957Z,63.37
2023-01-23T20:10:30.566Z,63.18
2023-01-23T20:15:36.058Z,63.23
2023-01-23T20:20:41.601Z,62.71
2023-01-23T20:25:47.180Z,63.45
2023-01-23T20:30:54.303Z,63.25
2023-01-23T20:35:59.918Z,61.15
2023-01-23T20:41:07.925Z,61.15
2023-01-23T20:46:15.627Z,62.57
2023-01-23T20:51:21.179Z,63.26
2023-01-23T20:56:28.294Z,63.42
2023-01-23T21:01:54.397Z,63.47
2023-01-23T21:07:00.220Z,63.63
2023-01-23T21:12:06.299Z,63.83
2023-01-23T21:17:12.052Z,63.71
2023-01-23T21:22:17.468Z,63.14
2023-01-23T21:27:25.131Z,63.67
2023-01-23T21:32:30.300Z,63.79
2023-01-23T21:37:36.189Z,64.19
2023-01-23T21:42:41.868Z,64.05
2023-01-23T21:47:47.380Z,64.05
2023-01-23T21:52:52.902Z,64.41
2023-01-23T21:57:58.377Z,64.36
2023-01-23T22:03:03.937Z,63.53
2023-01-23T22:08:09.454Z,63.49
2023-01-23T22:13:15.089Z,64.07
2023-01-23T22:18:20.482Z,64.06
2023-01-23T22:23:26.906Z,63.94
2023-01-23T22:28:33.645Z,64.24
2023-01-23T22:33:43.995Z,63.78
2023-01-23T22:38:54.038Z,63.54
2023-01-23T22:44:02.335Z,63.94
2023-01-23T22:49:07.808Z,64.17
2023-01-23T22:54:13.434Z,63.87
2023-01-23T22:59:18.823Z,64.21
2023-01-23T23:04:24.242Z,64.11
2023-01-23T23:09:29.952Z,63.90
2023-01-23T23:14:37.021Z,64.28
2023-01-23T23:19:42.494Z,63.93
2023-01-23T23:24:49.505Z,63.87
2023-01-23T23:29:54.916Z,65.02
2023-01-23T23:35:00.446Z,65.12
2023-01-23T23:40:06.919Z,65.01
2023-01-23T23:45:12.861Z,64.83
2023-01-23T23:50:18.771Z,64.63
2023-01-23T23:55:24.158Z,64.29
